Time;durP1;ratioP1;P1;durP2;ratioP2;P2;SDS_P1;SDS_P2;PMS_P1;PMS_P2;Temp;Humidity;BMP_temperature;BMP_pressure;BME280_temperature;BME280_humidity;BME280_pressure;Samples;Min_cycle;Max_cycle;Signal;HPM_P1;HPM_P2
2023/02/25 00:00:09;;;;;;;4.60;1.93;;;;;;;;;;4952249;28;20662;-79
2023/02/25 00:02:35;;;;;;;4.80;0.90;;;;;;;;;;4948131;28;20546;-78
2023/02/25 00:05:03;;;;;;;4.00;0.77;;;;;;;;;;4969340;28;20181;-79
2023/02/25 00:07:30;;;;;;;3.43;0.90;;;;;;;;;;4951311;28;20173;-78
2023/02/25 00:09:56;;;;;;;8.00;1.30;;;;;;;;;;4949870;28;20185;-77
2023/02/25 00:12:21;;;;;;;6.43;0.90;;;;;;;;;;4951473;28;20193;-80
2023/02/25 00:14:46;;;;;;;9.80;2.63;;;;;;;;;;4953405;28;20272;-80
2023/02/25 00:17:11;;;;;;;7.00;0.83;;;;;;;;;;4950123;28;20528;-79
2023/02/25 00:19:37;;;;;;;8.73;1.10;;;;;;;;;;4949398;28;20612;-79
2023/02/25 00:22:02;;;;;;;4.10;1.30;;;;;;;;;;4967008;28;20208;-80
2023/02/25 00:24:27;;;;;;;3.77;1.23;;;;;;;;;;4949044;28;20239;-79
2023/02/25 00:26:52;;;;;;;8.93;1.33;;;;;;;;;;4951174;28;20181;-79
2023/02/25 00:29:17;;;;;;;7.37;1.60;;;;;;;;;;4946087;28;20679;-79
2023/02/25 00:31:42;;;;;;;5.73;1.30;;;;;;;;;;4949804;28;20293;-78
2023/02/25 00:34:08;;;;;;;9.23;1.27;;;;;;;;;;4946120;28;20201;-79
2023/02/25 00:36:33;;;;;;;6.30;1.00;;;;;;;;;;4949057;29;20263;-79
2023/02/25 00:38:58;;;;;;;4.53;1.10;;;;;;;;;;4953509;28;20657;-80
2023/02/25 00:41:25;;;;;;;7.63;1.43;;;;;;;;;;4946673;28;20182;-79
2023/02/25 00:43:52;;;;;;;4.60;1.03;;;;;;;;;;4950144;28;20211;-79
2023/02/25 00:46:17;;;;;;;11.03;1.57;;;;;;;;;;4949370;28;20192;-79
2023/02/25 00:48:43;;;;;;;7.87;1.30;;;;;;;;;;4956567;28;20208;-80
2023/02/25 00:51:10;;;;;;;11.27;3.00;;;;;;;;;;4930861;28;20189;-80
2023/02/25 00:53:38;;;;;;;12.37;1.37;;;;;;;;;;4940040;28;20208;-78
2023/02/25 00:56:05;;;;;;;8.43;1.80;;;;;;;;;;4953956;28;20181;-78
2023/02/25 00:58:30;;;;;;;4.93;1.27;;;;;;;;;;4957756;28;20181;-80
2023/02/25 01:00:56;;;;;;;6.70;1.20;;;;;;;;;;4945444;28;20234;-79
2023/02/25 01:03:21;;;;;;;8.03;1.73;;;;;;;;;;4946417;28;20207;-79
2023/02/25 01:05:48;;;;;;;6.73;1.20;;;;;;;;;;4952278;28;20235;-79
2023/02/25 01:08:14;;;;;;;10.27;2.10;;;;;;;;;;4949429;28;20177;-78
2023/02/25 01:10:40;;;;;;;5.70;1.40;;;;;;;;;;4945683;29;20221;-79
2023/02/25 01:13:05;;;;;;;13.90;2.33;;;;;;;;;;4954562;28;20537;-79
2023/02/25 01:15:30;;;;;;;10.63;1.33;;;;;;;;;;4947765;28;20180;-79
2023/02/25 01:17:55;;;;;;;7.43;1.60;;;;;;;;;;4955212;28;20180;-79
2023/02/25 01:20:22;;;;;;;5.13;1.13;;;;;;;;;;4952388;28;20174;-80
2023/02/25 01:22:48;;;;;;;6.13;1.90;;;;;;;;;;4970995;28;20243;-79
2023/02/25 01:25:16;;;;;;;10.67;1.93;;;;;;;;;;4971888;28;20181;-79
2023/02/25 01:27:41;;;;;;;16.13;2.13;;;;;;;;;;4973536;28;20180;-79
2023/02/25 01:30:07;;;;;;;7.60;2.10;;;;;;;;;;4969691;28;20193;-80
2023/02/25 01:32:32;;;;;;;11.00;1.43;;;;;;;;;;4971489;28;20200;-80
2023/02/25 01:34:58;;;;;;;5.80;1.67;;;;;;;;;;4960775;28;20185;-80
2023/02/25 01:37:23;;;;;;;13.43;1.80;;;;;;;;;;4950593;28;20181;-79
2023/02/25 01:39:48;;;;;;;12.43;2.10;;;;;;;;;;4967512;28;20201;-80
2023/02/25 01:42:14;;;;;;;8.30;2.23;;;;;;;;;;4967662;28;20219;-78
2023/02/25 01:44:59;;;;;;;13.67;2.30;;;;;;;;;;4976152;28;20196;-80
2023/02/25 01:47:25;;;;;;;7.07;2.40;;;;;;;;;;4979767;28;20169;-79
2023/02/25 01:49:51;;;;;;;23.43;3.00;;;;;;;;;;4973566;28;20189;-79
2023/02/25 01:52:22;;;;;;;11.47;2.10;;;;;;;;;;4971017;28;20228;-79
2023/02/25 01:54:50;;;;;;;15.70;2.40;;;;;;;;;;4974543;28;20236;-78
2023/02/25 01:57:16;;;;;;;12.20;2.17;;;;;;;;;;4958063;29;20173;-81
2023/02/25 01:59:42;;;;;;;9.60;3.00;;;;;;;;;;4950377;28;20216;-81
2023/02/25 02:02:11;;;;;;;12.37;3.30;;;;;;;;;;4950641;28;20217;-79
2023/02/25 02:04:38;;;;;;;9.23;1.73;;;;;;;;;;4954571;28;20211;-79
2023/02/25 02:07:03;;;;;;;11.30;2.17;;;;;;;;;;4949933;28;20663;-78
2023/02/25 02:09:29;;;;;;;10.63;2.20;;;;;;;;;;4949317;29;20196;-79
2023/02/25 02:11:55;;;;;;;12.80;2.67;;;;;;;;;;4954890;28;20293;-79
2023/02/25 02:14:24;;;;;;;15.10;2.40;;;;;;;;;;4957373;28;20694;-78
2023/02/25 02:16:49;;;;;;;9.47;2.10;;;;;;;;;;4953091;28;20257;-79
2023/02/25 02:19:34;;;;;;;5.63;2.00;;;;;;;;;;4953063;28;20198;-79
2023/02/25 02:22:07;;;;;;;8.37;2.87;;;;;;;;;;4953763;28;20222;-79
2023/02/25 02:24:32;;;;;;;10.03;2.47;;;;;;;;;;4951770;29;20183;-79
2023/02/25 02:27:01;;;;;;;12.73;1.90;;;;;;;;;;4951274;28;20184;-79
2023/02/25 02:29:32;;;;;;;12.93;2.33;;;;;;;;;;4956614;28;20188;-79
2023/02/25 02:31:57;;;;;;;7.93;2.20;;;;;;;;;;4956608;28;20256;-78
2023/02/25 02:34:32;;;;;;;11.80;2.20;;;;;;;;;;4956052;28;20208;-79
2023/02/25 02:37:11;;;;;;;16.20;2.93;;;;;;;;;;4951978;28;20187;-79
2023/02/25 02:40:15;;;;;;;7.47;2.23;;;;;;;;;;4943753;28;20220;-79
2023/02/25 02:42:58;;;;;;;8.83;1.73;;;;;;;;;;4947959;28;20204;-79
2023/02/25 02:45:24;;;;;;;9.73;2.20;;;;;;;;;;4950231;28;20190;-79
2023/02/25 02:48:01;;;;;;;13.20;4.37;;;;;;;;;;4961906;28;20655;-79
2023/02/25 02:50:37;;;;;;;7.70;2.00;;;;;;;;;;4954547;28;20240;-78
2023/02/25 02:53:05;;;;;;;10.50;2.40;;;;;;;;;;4943057;28;20216;-78
2023/02/25 02:55:33;;;;;;;6.90;2.07;;;;;;;;;;4951210;28;20334;-79
2023/02/25 02:58:21;;;;;;;14.33;2.73;;;;;;;;;;4948404;28;20220;-79
2023/02/25 03:00:47;;;;;;;14.70;3.57;;;;;;;;;;4953967;28;20188;-79
2023/02/25 03:03:18;;;;;;;13.87;2.20;;;;;;;;;;4956839;28;20675;-79
2023/02/25 03:05:45;;;;;;;10.53;2.27;;;;;;;;;;4951952;28;20193;-79
2023/02/25 03:08:17;;;;;;;9.90;2.50;;;;;;;;;;4949599;29;20188;-79
2023/02/25 03:10:43;;;;;;;6.23;2.20;;;;;;;;;;4954357;29;20181;-79
2023/02/25 03:13:08;;;;;;;11.63;2.83;;;;;;;;;;4954192;28;20272;-78
2023/02/25 03:15:34;;;;;;;11.27;2.80;;;;;;;;;;4953920;28;20198;-81
2023/02/25 03:18:03;;;;;;;11.93;2.77;;;;;;;;;;4953442;28;20181;-80
2023/02/25 03:20:33;;;;;;;14.40;2.50;;;;;;;;;;4954319;28;20200;-79
2023/02/25 03:23:00;;;;;;;17.60;2.67;;;;;;;;;;4952803;29;20220;-79
2023/02/25 03:25:29;;;;;;;17.27;2.90;;;;;;;;;;4955598;28;20265;-79
2023/02/25 03:27:55;;;;;;;12.10;2.17;;;;;;;;;;4953774;29;20271;-79
2023/02/25 03:30:20;;;;;;;13.77;2.33;;;;;;;;;;4955206;28;20177;-78
2023/02/25 03:32:48;;;;;;;14.37;3.30;;;;;;;;;;4953793;28;20193;-79
2023/02/25 03:35:14;;;;;;;11.00;2.33;;;;;;;;;;4955358;28;20310;-79
2023/02/25 03:37:42;;;;;;;17.13;2.80;;;;;;;;;;4949509;28;20224;-79
2023/02/25 03:40:12;;;;;;;12.67;3.17;;;;;;;;;;4954526;28;20227;-79
2023/02/25 03:42:40;;;;;;;11.67;2.83;;;;;;;;;;4953102;28;20196;-78
2023/02/25 03:45:07;;;;;;;14.00;3.77;;;;;;;;;;4949258;28;20178;-78
2023/02/25 03:47:34;;;;;;;10.23;2.90;;;;;;;;;;4944107;28;20651;-79
2023/02/25 03:50:01;;;;;;;18.83;5.07;;;;;;;;;;4941835;28;20188;-79
2023/02/25 03:52:27;;;;;;;20.73;2.97;;;;;;;;;;4948817;28;20193;-80
2023/02/25 03:54:53;;;;;;;13.07;2.70;;;;;;;;;;4953670;28;20204;-79
2023/02/25 03:57:19;;;;;;;14.63;2.33;;;;;;;;;;4939612;29;20722;-79
2023/02/25 03:59:44;;;;;;;14.97;2.53;;;;;;;;;;4946217;28;20181;-79
2023/02/25 04:02:11;;;;;;;14.67;2.77;;;;;;;;;;4948856;28;20278;-79
2023/02/25 04:04:36;;;;;;;10.67;2.87;;;;;;;;;;4951246;28;20183;-79
2023/02/25 04:07:01;;;;;;;8.27;2.20;;;;;;;;;;4958388;28;20176;-78
2023/02/25 04:09:26;;;;;;;13.00;3.33;;;;;;;;;;4949801;28;20181;-79
2023/02/25 04:11:55;;;;;;;10.37;2.40;;;;;;;;;;4949816;28;20205;-79
2023/02/25 04:14:21;;;;;;;11.43;1.43;;;;;;;;;;4951685;29;20200;-79
2023/02/25 04:16:46;;;;;;;15.33;2.50;;;;;;;;;;4951195;28;20173;-79
2023/02/25 04:19:11;;;;;;;6.40;2.07;;;;;;;;;;4953611;28;20187;-79
2023/02/25 04:21:36;;;;;;;10.23;2.00;;;;;;;;;;4944355;29;20180;-79
2023/02/25 04:24:04;;;;;;;11.43;1.73;;;;;;;;;;4975465;23;20244;-70
2023/02/25 04:26:29;;;;;;;8.00;1.97;;;;;;;;;;4963353;28;20207;-71
2023/02/25 04:28:55;;;;;;;11.07;1.90;;;;;;;;;;4962866;28;20734;-71
2023/02/25 04:31:20;;;;;;;10.37;1.67;;;;;;;;;;4962948;28;20181;-71
2023/02/25 04:33:48;;;;;;;7.30;1.93;;;;;;;;;;4970986;28;20219;-72
2023/02/25 04:36:27;;;;;;;6.27;1.60;;;;;;;;;;4972566;28;20266;-72
2023/02/25 04:38:53;;;;;;;9.90;2.13;;;;;;;;;;4966453;28;20642;-71
2023/02/25 04:41:18;;;;;;;6.70;2.13;;;;;;;;;;4961616;28;20268;-72
2023/02/25 04:43:44;;;;;;;14.30;1.73;;;;;;;;;;4972909;28;20218;-71
2023/02/25 04:46:10;;;;;;;10.07;1.93;;;;;;;;;;4969044;28;20227;-71
2023/02/25 04:48:35;;;;;;;9.20;2.20;;;;;;;;;;4970944;28;20261;-73
2023/02/25 04:51:01;;;;;;;6.87;1.37;;;;;;;;;;4970978;28;20662;-72
2023/02/25 04:53:26;;;;;;;13.83;3.00;;;;;;;;;;4974371;28;20766;-73
2023/02/25 04:55:52;;;;;;;9.30;1.87;;;;;;;;;;4970273;28;20184;-71
2023/02/25 04:58:17;;;;;;;10.23;2.73;;;;;;;;;;4972928;28;20188;-72
2023/02/25 05:00:47;;;;;;;7.27;1.57;;;;;;;;;;4973084;28;20176;-72
2023/02/25 05:03:12;;;;;;;5.83;1.47;;;;;;;;;;4968373;28;20566;-72
2023/02/25 05:05:37;;;;;;;10.27;2.17;;;;;;;;;;4972910;28;20195;-72
2023/02/25 05:08:03;;;;;;;7.67;1.77;;;;;;;;;;4969436;28;20196;-73
2023/02/25 05:10:28;;;;;;;13.50;2.23;;;;;;;;;;4977216;28;20184;-71
2023/02/25 05:12:54;;;;;;;9.30;2.10;;;;;;;;;;4975093;28;20654;-72
2023/02/25 05:15:19;;;;;;;9.37;2.90;;;;;;;;;;4971805;28;20180;-72
2023/02/25 05:17:44;;;;;;;11.73;1.93;;;;;;;;;;4979519;28;20177;-72
2023/02/25 05:20:11;;;;;;;9.53;1.70;;;;;;;;;;4977790;28;20172;-72
2023/02/25 05:22:37;;;;;;;11.57;1.70;;;;;;;;;;4973239;28;20262;-73
2023/02/25 05:25:02;;;;;;;16.63;4.43;;;;;;;;;;4972658;28;20200;-73
2023/02/25 05:27:27;;;;;;;14.00;2.13;;;;;;;;;;4973912;28;20180;-73
2023/02/25 05:29:53;;;;;;;9.73;1.73;;;;;;;;;;4974870;28;20366;-72
2023/02/25 05:32:18;;;;;;;9.10;1.87;;;;;;;;;;4974801;28;20208;-72
2023/02/25 05:34:43;;;;;;;11.93;1.90;;;;;;;;;;4974749;28;20278;-72
2023/02/25 05:37:09;;;;;;;6.77;1.77;;;;;;;;;;4974855;28;20183;-73
2023/02/25 05:39:34;;;;;;;7.10;1.70;;;;;;;;;;4969533;28;20283;-71
2023/02/25 05:42:00;;;;;;;7.33;1.40;;;;;;;;;;4971924;28;20406;-73
2023/02/25 05:44:25;;;;;;;7.53;1.43;;;;;;;;;;4975444;28;20215;-73
2023/02/25 05:46:50;;;;;;;8.27;1.50;;;;;;;;;;4975337;28;20287;-72
2023/02/25 05:49:15;;;;;;;11.50;2.87;;;;;;;;;;4975181;28;20618;-73
2023/02/25 05:51:40;;;;;;;9.37;1.57;;;;;;;;;;4974699;28;20206;-72
2023/02/25 05:54:06;;;;;;;9.20;1.70;;;;;;;;;;4973948;28;20577;-73
2023/02/25 05:56:31;;;;;;;14.27;2.60;;;;;;;;;;4974879;28;20184;-74
2023/02/25 05:58:56;;;;;;;8.87;3.00;;;;;;;;;;4975171;28;20236;-72
2023/02/25 06:01:23;;;;;;;8.10;2.10;;;;;;;;;;4976266;28;20168;-73
2023/02/25 06:03:49;;;;;;;9.63;2.00;;;;;;;;;;4976980;28;20568;-72
2023/02/25 06:06:15;;;;;;;10.37;2.30;;;;;;;;;;4975527;28;20192;-73
2023/02/25 06:08:43;;;;;;;5.77;1.40;;;;;;;;;;4974782;28;20713;-72
2023/02/25 06:11:08;;;;;;;11.77;1.70;;;;;;;;;;4981480;28;20179;-74
2023/02/25 06:13:33;;;;;;;11.27;2.70;;;;;;;;;;4978226;28;20207;-73
2023/02/25 06:16:01;;;;;;;16.00;2.13;;;;;;;;;;4975009;28;20610;-73
2023/02/25 06:18:26;;;;;;;8.23;1.63;;;;;;;;;;4974601;28;20263;-73
2023/02/25 06:20:51;;;;;;;14.43;3.00;;;;;;;;;;4972696;28;20625;-73
2023/02/25 06:23:17;;;;;;;7.10;1.93;;;;;;;;;;4973004;28;20226;-73
2023/02/25 06:25:42;;;;;;;5.30;1.47;;;;;;;;;;4971871;28;20572;-73
2023/02/25 06:28:07;;;;;;;15.50;2.80;;;;;;;;;;4971463;28;20180;-73
2023/02/25 06:30:32;;;;;;;10.60;2.27;;;;;;;;;;4980457;28;20172;-73
2023/02/25 06:32:57;;;;;;;6.93;1.77;;;;;;;;;;4972674;28;20204;-73
2023/02/25 06:35:23;;;;;;;10.97;2.93;;;;;;;;;;4973268;28;20526;-73
2023/02/25 06:37:49;;;;;;;13.07;1.87;;;;;;;;;;4969546;28;20256;-72
2023/02/25 06:40:14;;;;;;;10.73;3.00;;;;;;;;;;4970416;28;20287;-73
2023/02/25 06:42:39;;;;;;;11.13;2.17;;;;;;;;;;4965248;28;20286;-74
2023/02/25 06:45:05;;;;;;;15.33;3.90;;;;;;;;;;4972261;28;20216;-73
2023/02/25 06:47:30;;;;;;;10.57;2.17;;;;;;;;;;4973614;28;20187;-72
2023/02/25 06:49:56;;;;;;;14.70;2.43;;;;;;;;;;4973824;28;20188;-71
2023/02/25 06:52:21;;;;;;;11.10;2.50;;;;;;;;;;4973254;28;20227;-72
2023/02/25 06:54:46;;;;;;;9.43;2.03;;;;;;;;;;4973499;28;20196;-73
2023/02/25 06:57:11;;;;;;;14.07;1.90;;;;;;;;;;4971752;28;20184;-72
2023/02/25 06:59:36;;;;;;;11.07;1.93;;;;;;;;;;4973021;28;20181;-72
2023/02/25 07:02:02;;;;;;;14.10;2.33;;;;;;;;;;4964353;28;20226;-72
2023/02/25 07:04:27;;;;;;;10.20;2.80;;;;;;;;;;4971309;28;20184;-72
2023/02/25 07:06:52;;;;;;;9.33;2.63;;;;;;;;;;4974427;28;20544;-72
2023/02/25 07:09:17;;;;;;;12.73;2.80;;;;;;;;;;4973894;28;20191;-72
2023/02/25 07:11:42;;;;;;;14.43;2.37;;;;;;;;;;4973394;28;20181;-73
2023/02/25 07:14:08;;;;;;;14.80;2.63;;;;;;;;;;4972141;28;20200;-72
2023/02/25 07:16:33;;;;;;;11.23;1.90;;;;;;;;;;4972659;28;20179;-72
2023/02/25 07:19:01;;;;;;;6.67;1.80;;;;;;;;;;4973186;28;20176;-71
2023/02/25 07:21:28;;;;;;;9.63;2.20;;;;;;;;;;4971220;28;20664;-73
2023/02/25 07:23:53;;;;;;;14.37;2.70;;;;;;;;;;4971463;28;20582;-72
2023/02/25 07:26:18;;;;;;;9.57;1.90;;;;;;;;;;4971301;28;20180;-72
2023/02/25 07:28:43;;;;;;;11.83;2.30;;;;;;;;;;4984007;28;20288;-72
2023/02/25 07:31:10;;;;;;;14.47;2.63;;;;;;;;;;4972927;28;20176;-72
2023/02/25 07:33:35;;;;;;;11.00;2.73;;;;;;;;;;4972610;28;20219;-72
2023/02/25 07:36:01;;;;;;;10.33;2.10;;;;;;;;;;4973063;28;20176;-72
2023/02/25 07:38:26;;;;;;;15.33;2.90;;;;;;;;;;4970908;28;20191;-73
2023/02/25 07:40:51;;;;;;;9.07;2.27;;;;;;;;;;4972397;28;20172;-73
2023/02/25 07:43:16;;;;;;;7.47;2.43;;;;;;;;;;4971329;28;20204;-71
2023/02/25 07:45:41;;;;;;;8.47;2.43;;;;;;;;;;4971442;28;20191;-72
2023/02/25 07:48:09;;;;;;;11.30;2.00;;;;;;;;;;4971647;28;20192;-74
2023/02/25 07:50:35;;;;;;;9.97;2.27;;;;;;;;;;4975188;28;20176;-73
2023/02/25 07:53:00;;;;;;;12.63;1.97;;;;;;;;;;4973403;28;20274;-72
2023/02/25 07:55:25;;;;;;;9.47;2.43;;;;;;;;;;4971183;28;20176;-73
2023/02/25 07:57:51;;;;;;;17.37;3.37;;;;;;;;;;4971294;28;20185;-72
2023/02/25 08:00:16;;;;;;;8.93;3.83;;;;;;;;;;4971859;28;20669;-72
2023/02/25 08:02:42;;;;;;;7.07;1.93;;;;;;;;;;4967136;28;20578;-73
2023/02/25 08:05:08;;;;;;;10.27;2.70;;;;;;;;;;4971992;28;20184;-75
2023/02/25 08:07:33;;;;;;;12.60;2.40;;;;;;;;;;4972050;28;20729;-72
2023/02/25 08:09:59;;;;;;;11.50;2.30;;;;;;;;;;4970712;28;20609;-72
2023/02/25 08:12:24;;;;;;;8.67;2.53;;;;;;;;;;4972185;28;20200;-73
2023/02/25 08:14:49;;;;;;;12.60;3.20;;;;;;;;;;4973152;28;20633;-72
2023/02/25 08:17:14;;;;;;;13.33;2.70;;;;;;;;;;4972831;28;20176;-72
2023/02/25 08:19:40;;;;;;;17.37;4.07;;;;;;;;;;4968187;28;20562;-72
2023/02/25 08:22:05;;;;;;;8.60;2.47;;;;;;;;;;4974658;28;20176;-72
2023/02/25 08:24:31;;;;;;;14.20;2.60;;;;;;;;;;4971638;28;20203;-72
2023/02/25 08:26:56;;;;;;;9.93;2.60;;;;;;;;;;4972533;28;20203;-73
2023/02/25 08:29:21;;;;;;;15.87;2.60;;;;;;;;;;4972418;28;20680;-73
2023/02/25 08:31:48;;;;;;;9.70;2.27;;;;;;;;;;4972144;28;20619;-71
2023/02/25 08:34:13;;;;;;;13.10;2.73;;;;;;;;;;4973795;28;20208;-71
2023/02/25 08:36:38;;;;;;;8.87;2.70;;;;;;;;;;4973375;28;20259;-72
2023/02/25 08:39:03;;;;;;;14.13;2.47;;;;;;;;;;4983946;28;20187;-72
2023/02/25 08:41:29;;;;;;;10.80;2.20;;;;;;;;;;4966672;28;21535;-72
2023/02/25 08:43:55;;;;;;;13.87;2.57;;;;;;;;;;4959794;28;20248;-72
2023/02/25 08:46:21;;;;;;;11.73;2.90;;;;;;;;;;4971443;28;20188;-73
2023/02/25 08:48:50;;;;;;;7.80;2.57;;;;;;;;;;4968012;28;20645;-73
2023/02/25 08:51:16;;;;;;;15.90;2.67;;;;;;;;;;4970880;28;20247;-72
2023/02/25 08:53:41;;;;;;;15.43;2.90;;;;;;;;;;4964644;28;20215;-72
2023/02/25 08:56:08;;;;;;;7.80;1.57;;;;;;;;;;4970760;28;20673;-72
2023/02/25 08:58:33;;;;;;;6.47;1.60;;;;;;;;;;4970062;28;20663;-72
2023/02/25 09:00:58;;;;;;;9.23;1.83;;;;;;;;;;4971184;28;20279;-71
2023/02/25 09:03:23;;;;;;;4.87;1.20;;;;;;;;;;4969888;28;20570;-73
2023/02/25 09:05:52;;;;;;;6.20;1.00;;;;;;;;;;4971950;28;20295;-72
2023/02/25 09:08:18;;;;;;;5.43;1.73;;;;;;;;;;4971918;28;20668;-72
2023/02/25 09:10:43;;;;;;;10.00;1.67;;;;;;;;;;4968018;28;20299;-72
2023/02/25 09:13:08;;;;;;;6.10;1.00;;;;;;;;;;4971319;28;20243;-74
2023/02/25 09:15:34;;;;;;;6.27;1.00;;;;;;;;;;4971302;28;20173;-72
2023/02/25 09:17:59;;;;;;;3.20;1.17;;;;;;;;;;4970856;28;20184;-72
2023/02/25 09:20:25;;;;;;;3.33;1.50;;;;;;;;;;4972523;28;20195;-72
2023/02/25 09:22:50;;;;;;;6.77;1.80;;;;;;;;;;4971490;28;20686;-72
2023/02/25 09:25:16;;;;;;;4.93;1.40;;;;;;;;;;4963118;28;20188;-72
2023/02/25 09:27:41;;;;;;;6.63;1.70;;;;;;;;;;4969552;28;20189;-72
2023/02/25 09:30:06;;;;;;;9.43;1.67;;;;;;;;;;4970938;28;20177;-71
2023/02/25 09:32:32;;;;;;;4.47;1.40;;;;;;;;;;4969193;28;20196;-72
2023/02/25 09:34:57;;;;;;;6.77;1.83;;;;;;;;;;4970850;28;20569;-73
2023/02/25 09:37:22;;;;;;;11.63;2.30;;;;;;;;;;4965773;28;20666;-73
2023/02/25 09:39:47;;;;;;;7.90;2.70;;;;;;;;;;4964965;28;20232;-72
2023/02/25 09:42:17;;;;;;;5.47;1.30;;;;;;;;;;4969837;28;20603;-72
2023/02/25 09:44:44;;;;;;;12.47;1.87;;;;;;;;;;4969585;28;20224;-72
2023/02/25 09:47:15;;;;;;;5.17;1.83;;;;;;;;;;4971749;28;20189;-72
2023/02/25 09:49:43;;;;;;;7.23;1.77;;;;;;;;;;4966014;28;20188;-72
2023/02/25 09:52:13;;;;;;;5.23;1.60;;;;;;;;;;4971191;28;20234;-72
2023/02/25 09:54:43;;;;;;;7.80;2.13;;;;;;;;;;4969445;28;20204;-74
2023/02/25 09:57:10;;;;;;;6.73;1.50;;;;;;;;;;4959094;28;20220;-72
2023/02/25 09:59:36;;;;;;;6.53;2.10;;;;;;;;;;4973080;28;20187;-71
2023/02/25 10:02:10;;;;;;;7.30;0.97;;;;;;;;;;4971922;28;20184;-72
2023/02/25 10:05:01;;;;;;;4.50;0.73;;;;;;;;;;4985107;28;20180;-72
2023/02/25 10:07:30;;;;;;;4.10;0.73;;;;;;;;;;4989436;28;20192;-72
2023/02/25 10:10:02;;;;;;;4.53;0.90;;;;;;;;;;4974474;28;20189;-72
2023/02/25 10:12:36;;;;;;;1.50;0.37;;;;;;;;;;4960733;28;20209;-73
2023/02/25 10:15:19;;;;;;;4.80;0.73;;;;;;;;;;4965908;28;20725;-72
2023/02/25 10:17:53;;;;;;;4.87;1.50;;;;;;;;;;4968188;28;20168;-72
2023/02/25 10:20:29;;;;;;;5.70;1.50;;;;;;;;;;4974820;28;20180;-72
2023/02/25 10:23:01;;;;;;;2.43;0.67;;;;;;;;;;4983941;23;20259;-81
2023/02/25 10:25:29;;;;;;;5.50;2.07;;;;;;;;;;4972424;28;20239;-81
2023/02/25 10:27:56;;;;;;;5.00;1.57;;;;;;;;;;4976781;28;20274;-80
2023/02/25 10:30:32;;;;;;;7.33;1.03;;;;;;;;;;4978478;28;20192;-81
2023/02/25 10:32:59;;;;;;;5.90;1.23;;;;;;;;;;4965350;28;20208;-79
2023/02/25 10:35:27;;;;;;;2.13;1.00;;;;;;;;;;4977150;28;20176;-78
2023/02/25 10:37:53;;;;;;;9.57;1.10;;;;;;;;;;4976015;28;20189;-81
2023/02/25 10:40:20;;;;;;;3.00;1.20;;;;;;;;;;4976905;28;20625;-81
2023/02/25 10:42:47;;;;;;;5.60;0.90;;;;;;;;;;4975190;28;20227;-80
2023/02/25 10:45:15;;;;;;;3.47;0.90;;;;;;;;;;4976484;28;20603;-77
2023/02/25 10:47:43;;;;;;;1.70;0.63;;;;;;;;;;4975921;28;20304;-80
2023/02/25 10:50:14;;;;;;;5.10;1.97;;;;;;;;;;4965431;28;20271;-81
2023/02/25 10:52:53;;;;;;;4.37;1.23;;;;;;;;;;4975847;28;20266;-79
2023/02/25 10:55:27;;;;;;;5.33;1.10;;;;;;;;;;4971340;28;20187;-79
2023/02/25 10:57:53;;;;;;;3.40;0.73;;;;;;;;;;4975109;28;20652;-79
2023/02/25 11:00:22;;;;;;;3.37;1.10;;;;;;;;;;4975012;28;20239;-80
2023/02/25 11:02:49;;;;;;;3.03;0.90;;;;;;;;;;4967246;28;20188;-79
2023/02/25 11:05:37;;;;;;;2.60;0.80;;;;;;;;;;4968273;28;20232;-79
2023/02/25 11:08:06;;;;;;;3.17;0.70;;;;;;;;;;4959335;28;20185;-78
2023/02/25 11:10:31;;;;;;;9.10;1.10;;;;;;;;;;4972036;28;20180;-79
2023/02/25 11:12:57;;;;;;;3.43;1.37;;;;;;;;;;4970593;28;20614;-79
2023/02/25 11:15:28;;;;;;;3.37;0.80;;;;;;;;;;4967647;28;20244;-80
2023/02/25 11:17:55;;;;;;;3.57;0.93;;;;;;;;;;4971955;28;20168;-80
2023/02/25 11:20:22;;;;;;;6.30;0.77;;;;;;;;;;4969207;28;20177;-80
2023/02/25 11:22:50;;;;;;;6.17;1.00;;;;;;;;;;4969255;28;20223;-81
2023/02/25 11:25:16;;;;;;;5.30;1.00;;;;;;;;;;4971128;28;20189;-80
2023/02/25 11:27:42;;;;;;;3.27;1.17;;;;;;;;;;4966775;28;20177;-80
2023/02/25 11:30:10;;;;;;;2.37;0.90;;;;;;;;;;4970865;28;20181;-80
2023/02/25 11:32:39;;;;;;;4.73;1.00;;;;;;;;;;4971770;28;20236;-80
2023/02/25 11:35:15;;;;;;;4.47;1.17;;;;;;;;;;4969866;28;20243;-79
2023/02/25 11:37:42;;;;;;;4.00;1.30;;;;;;;;;;4976165;28;20205;-79
2023/02/25 11:40:28;;;;;;;6.20;1.90;;;;;;;;;;4964698;28;20228;-80
2023/02/25 11:43:00;;;;;;;2.57;0.80;;;;;;;;;;4968652;28;20235;-79
2023/02/25 11:45:27;;;;;;;7.00;1.63;;;;;;;;;;4969420;28;20264;-79
2023/02/25 11:47:53;;;;;;;2.60;1.00;;;;;;;;;;4968871;28;20271;-79
2023/02/25 11:50:22;;;;;;;6.53;0.80;;;;;;;;;;4970278;28;20220;-81
2023/02/25 11:52:57;;;;;;;3.50;0.73;;;;;;;;;;4966179;28;20641;-80
2023/02/25 11:55:41;;;;;;;3.23;1.27;;;;;;;;;;4969895;28;20172;-80
2023/02/25 11:58:25;;;;;;;4.20;1.20;;;;;;;;;;4983333;28;20180;-79
2023/02/25 12:00:57;;;;;;;1.80;0.80;;;;;;;;;;4974729;28;20192;-80
2023/02/25 12:03:42;;;;;;;6.13;0.93;;;;;;;;;;4967477;28;20551;-81
2023/02/25 12:06:22;;;;;;;5.27;1.20;;;;;;;;;;4970385;28;20630;-80
2023/02/25 12:09:03;;;;;;;1.50;0.73;;;;;;;;;;4965842;28;20685;-81
2023/02/25 12:11:39;;;;;;;6.13;1.00;;;;;;;;;;4971558;28;20215;-80
2023/02/25 12:14:24;;;;;;;9.13;1.03;;;;;;;;;;4972020;28;20204;-79
2023/02/25 12:17:16;;;;;;;7.20;0.87;;;;;;;;;;4970952;28;20184;-80
2023/02/25 12:19:59;;;;;;;3.93;0.97;;;;;;;;;;4967560;28;20205;-80
2023/02/25 12:22:35;;;;;;;5.17;1.20;;;;;;;;;;4972752;28;20187;-80
2023/02/25 12:25:12;;;;;;;6.57;1.43;;;;;;;;;;4972504;28;20282;-81
2023/02/25 12:27:38;;;;;;;4.13;0.80;;;;;;;;;;4968017;28;20184;-81
2023/02/25 12:30:07;;;;;;;6.17;1.23;;;;;;;;;;4972010;28;20571;-81
2023/02/25 12:32:35;;;;;;;3.60;1.03;;;;;;;;;;4972555;28;20181;-79
2023/02/25 12:35:05;;;;;;;7.77;1.30;;;;;;;;;;4974458;28;20204;-81
2023/02/25 12:37:30;;;;;;;6.00;1.27;;;;;;;;;;4974227;28;20612;-81
2023/02/25 12:40:08;;;;;;;7.30;0.93;;;;;;;;;;4970513;28;20181;-79
2023/02/25 12:42:46;;;;;;;2.97;1.03;;;;;;;;;;4971227;28;20200;-81
2023/02/25 12:45:28;;;;;;;6.93;1.10;;;;;;;;;;4964250;28;20198;-79
2023/02/25 12:47:56;;;;;;;6.60;1.10;;;;;;;;;;4969696;28;20254;-79
2023/02/25 12:50:27;;;;;;;2.73;0.80;;;;;;;;;;4974969;28;20192;-80
2023/02/25 12:52:58;;;;;;;4.80;1.20;;;;;;;;;;4969875;28;20196;-81
2023/02/25 12:55:35;;;;;;;5.50;1.30;;;;;;;;;;4970989;28;20172;-81
2023/02/25 12:58:03;;;;;;;4.40;0.90;;;;;;;;;;4973800;28;20164;-81
2023/02/25 13:00:28;;;;;;;3.37;1.27;;;;;;;;;;4974031;28;20186;-81
2023/02/25 13:03:03;;;;;;;5.43;1.17;;;;;;;;;;4964025;28;20726;-80
2023/02/25 13:05:30;;;;;;;7.10;1.03;;;;;;;;;;4981098;28;20275;-82
2023/02/25 13:08:13;;;;;;;6.17;1.10;;;;;;;;;;4975194;28;20211;-81
2023/02/25 13:11:01;;;;;;;3.10;1.40;;;;;;;;;;4966568;28;20183;-80
2023/02/25 13:13:38;;;;;;;3.27;1.00;;;;;;;;;;4964721;28;20212;-81
2023/02/25 13:16:03;;;;;;;4.70;1.17;;;;;;;;;;4971078;28;20204;-81
2023/02/25 13:18:49;;;;;;;8.87;1.53;;;;;;;;;;4970329;28;20185;-82
2023/02/25 13:21:24;;;;;;;4.50;1.23;;;;;;;;;;4964891;28;20181;-81
2023/02/25 13:24:01;;;;;;;2.67;0.60;;;;;;;;;;4976108;28;20638;-81
2023/02/25 13:26:31;;;;;;;4.53;1.47;;;;;;;;;;4970010;28;20267;-81
2023/02/25 13:29:12;;;;;;;8.07;0.97;;;;;;;;;;4969928;28;20188;-81
2023/02/25 13:31:56;;;;;;;8.80;1.33;;;;;;;;;;4967375;28;20207;-80
2023/02/25 13:34:39;;;;;;;1.33;0.63;;;;;;;;;;4969938;28;20296;-81
2023/02/25 13:37:14;;;;;;;6.00;1.33;;;;;;;;;;4973990;28;20181;-82
2023/02/25 13:39:57;;;;;;;5.13;0.90;;;;;;;;;;4969124;28;20262;-82
2023/02/25 13:42:29;;;;;;;4.70;1.07;;;;;;;;;;4977068;28;20654;-82
2023/02/25 13:45:24;;;;;;;3.60;1.00;;;;;;;;;;4969139;28;20260;-81
2023/02/25 13:48:02;;;;;;;4.60;1.00;;;;;;;;;;4973094;28;20176;-80
2023/02/25 13:50:45;;;;;;;5.57;0.90;;;;;;;;;;4963330;28;20191;-81
2023/02/25 13:53:13;;;;;;;2.70;1.00;;;;;;;;;;4967970;28;20272;-81
2023/02/25 13:55:44;;;;;;;2.60;1.27;;;;;;;;;;4974284;28;20180;-81
2023/02/25 13:58:16;;;;;;;3.53;1.03;;;;;;;;;;4974428;28;20263;-81
2023/02/25 14:00:50;;;;;;;14.83;1.37;;;;;;;;;;4975238;28;20705;-80
2023/02/25 14:03:22;;;;;;;5.60;1.20;;;;;;;;;;4975349;28;20290;-80
2023/02/25 14:05:47;;;;;;;3.37;1.00;;;;;;;;;;4976015;28;20187;-80
2023/02/25 14:08:24;;;;;;;2.73;1.00;;;;;;;;;;4974071;28;20232;-79
2023/02/25 14:11:10;;;;;;;5.57;1.47;;;;;;;;;;4975359;28;20188;-80
2023/02/25 14:13:35;;;;;;;6.93;2.17;;;;;;;;;;4975251;28;20231;-81
2023/02/25 14:16:00;;;;;;;2.87;1.23;;;;;;;;;;4970165;28;20167;-80
2023/02/25 14:18:45;;;;;;;7.63;2.23;;;;;;;;;;4971811;28;20209;-80
2023/02/25 14:21:29;;;;;;;5.90;1.77;;;;;;;;;;4972393;28;20170;-79
2023/02/25 14:23:57;;;;;;;4.40;0.97;;;;;;;;;;4976408;28;20239;-80
2023/02/25 14:26:22;;;;;;;10.00;1.33;;;;;;;;;;4974226;28;20189;-78
2023/02/25 14:28:47;;;;;;;5.63;1.40;;;;;;;;;;4976138;28;20191;-79
2023/02/25 14:31:16;;;;;;;2.30;0.83;;;;;;;;;;4974861;28;20180;-79
2023/02/25 14:34:02;;;;;;;5.13;1.23;;;;;;;;;;4968985;28;20292;-82
2023/02/25 14:36:35;;;;;;;3.70;1.47;;;;;;;;;;4972345;28;20208;-79
2023/02/25 14:39:15;;;;;;;7.90;1.83;;;;;;;;;;4970104;28;20184;-77
2023/02/25 14:41:53;;;;;;;3.53;1.27;;;;;;;;;;4977597;28;20487;-78
2023/02/25 14:44:32;;;;;;;4.00;1.23;;;;;;;;;;4968463;28;20607;-78
2023/02/25 14:47:09;;;;;;;6.00;1.30;;;;;;;;;;4976432;28;20184;-80